Time;durP1;ratioP1;P1;durP2;ratioP2;P2;SDS_P1;SDS_P2;PMS_P1;PMS_P2;Temp;Humidity;BMP_temperature;BMP_pressure;BME280_temperature;BME280_humidity;BME280_pressure;Samples;Min_cycle;Max_cycle;Signal;HPM_P1;HPM_P2
2024/01/11 00:00:53;;;;;;;4.93;3.92;;;-5.60;99.90;;;;;;5055675;28;20209;-78
2024/01/11 00:03:21;;;;;;;4.80;4.40;;;-5.60;99.90;;;;;;5054825;28;20208;-78
2024/01/11 00:05:48;;;;;;;12.10;4.72;;;-5.60;99.90;;;;;;5058982;28;20579;-78
2024/01/11 00:08:15;;;;;;;6.43;5.82;;;-5.70;99.90;;;;;;5060126;28;20225;-78
2024/01/11 00:10:41;;;;;;;9.18;6.00;;;-5.70;99.90;;;;;;5066774;28;20221;-78
2024/01/11 00:13:08;;;;;;;10.73;8.52;;;-5.70;99.90;;;;;;5061169;28;20224;-78
2024/01/11 00:15:35;;;;;;;8.15;6.32;;;-5.70;99.90;;;;;;5066483;28;20292;-78
2024/01/11 00:18:02;;;;;;;8.65;5.18;;;-5.70;99.90;;;;;;5059276;28;20207;-78
2024/01/11 00:20:30;;;;;;;8.95;8.18;;;-5.80;99.90;;;;;;5056762;28;20580;-78
2024/01/11 00:22:56;;;;;;;7.47;4.72;;;-5.80;99.90;;;;;;5068254;28;20220;-78
2024/01/11 00:25:23;;;;;;;9.27;5.38;;;-5.80;99.90;;;;;;5061468;28;20208;-78
2024/01/11 00:27:50;;;;;;;4.38;3.60;;;-5.80;99.90;;;;;;5064583;28;20217;-78
2024/01/11 00:30:17;;;;;;;9.73;6.68;;;-5.80;99.90;;;;;;5072758;28;20196;-78
2024/01/11 00:32:43;;;;;;;8.80;5.50;;;-5.80;99.90;;;;;;5060517;28;20232;-78
2024/01/11 00:35:10;;;;;;;7.78;6.15;;;-5.80;99.90;;;;;;5061858;28;20205;-78
2024/01/11 00:37:38;;;;;;;8.77;5.10;;;-5.80;99.90;;;;;;5060507;28;20201;-78
2024/01/11 00:40:06;;;;;;;5.97;5.47;;;-5.90;99.90;;;;;;5067835;28;20322;-78
2024/01/11 00:42:34;;;;;;;7.30;5.25;;;-5.90;99.90;;;;;;5063455;28;20221;-78
2024/01/11 00:45:01;;;;;;;7.78;5.72;;;-5.90;99.90;;;;;;5062942;28;20278;-78
2024/01/11 00:47:28;;;;;;;14.25;5.80;;;-5.90;99.90;;;;;;5062559;28;20227;-78
2024/01/11 00:49:54;;;;;;;8.55;5.00;;;-5.90;99.90;;;;;;5052877;28;20216;-78
2024/01/11 00:52:21;;;;;;;6.50;5.03;;;-5.90;99.90;;;;;;5052912;28;20233;-78
2024/01/11 00:54:49;;;;;;;8.25;5.45;;;-5.90;99.90;;;;;;5067825;28;20205;-78
2024/01/11 00:57:16;;;;;;;8.55;6.03;;;-5.90;99.90;;;;;;5073829;28;20207;-78
2024/01/11 00:59:42;;;;;;;3.72;2.72;;;-5.90;99.90;;;;;;5074501;28;20219;-78
2024/01/11 01:02:09;;;;;;;7.35;5.25;;;-5.90;99.90;;;;;;5054642;28;20217;-78
2024/01/11 01:04:39;;;;;;;8.43;5.40;;;-5.90;99.90;;;;;;5062140;28;20205;-78
2024/01/11 01:07:06;;;;;;;10.20;6.35;;;-6.00;99.90;;;;;;5054803;28;20791;-78
2024/01/11 01:09:32;;;;;;;9.50;5.30;;;-6.00;99.90;;;;;;5057058;28;20232;-78
2024/01/11 01:12:00;;;;;;;6.05;5.35;;;-5.90;99.90;;;;;;5066037;28;20227;-78
2024/01/11 01:14:27;;;;;;;11.50;7.72;;;-5.90;99.90;;;;;;5057751;28;20197;-78
2024/01/11 01:16:54;;;;;;;8.70;5.97;;;-5.90;99.90;;;;;;5058455;28;20208;-78
2024/01/11 01:19:20;;;;;;;7.72;4.57;;;-5.90;99.90;;;;;;5057396;28;20197;-78
2024/01/11 01:21:47;;;;;;;5.03;4.20;;;-5.90;99.90;;;;;;5061617;28;20231;-78
2024/01/11 01:24:14;;;;;;;8.32;6.18;;;-6.00;99.90;;;;;;5059595;28;20204;-78
2024/01/11 01:26:41;;;;;;;5.80;5.28;;;-6.00;99.90;;;;;;5056788;28;20588;-78
2024/01/11 01:29:09;;;;;;;9.25;6.10;;;-6.00;99.90;;;;;;5061011;28;20213;-78
2024/01/11 01:31:37;;;;;;;5.38;4.88;;;-6.00;99.90;;;;;;5063179;28;20225;-78
2024/01/11 01:34:04;;;;;;;6.65;4.25;;;-6.00;99.90;;;;;;5058562;28;20196;-78
2024/01/11 01:36:31;;;;;;;17.60;8.48;;;-6.00;99.90;;;;;;5065045;28;20210;-78
2024/01/11 01:38:58;;;;;;;8.25;6.70;;;-6.00;99.90;;;;;;5060868;28;20666;-77
2024/01/11 01:41:24;;;;;;;8.38;6.10;;;-6.00;99.90;;;;;;5061137;28;20216;-78
2024/01/11 01:43:51;;;;;;;8.30;4.97;;;-6.00;99.90;;;;;;5057889;28;20204;-78
2024/01/11 01:46:23;;;;;;;9.10;4.95;;;-6.00;99.90;;;;;;5057828;28;20236;-78
2024/01/11 01:48:51;;;;;;;16.77;4.65;;;-6.00;99.90;;;;;;5061411;28;20224;-78
2024/01/11 01:51:18;;;;;;;6.72;5.35;;;-6.00;99.90;;;;;;5061440;28;20225;-78
2024/01/11 01:53:45;;;;;;;7.00;6.40;;;-6.00;99.90;;;;;;5056265;28;20223;-78
2024/01/11 01:56:12;;;;;;;6.65;5.38;;;-6.00;99.90;;;;;;5058676;28;20205;-78
2024/01/11 01:58:39;;;;;;;8.02;3.65;;;-6.00;99.90;;;;;;5056190;28;20209;-79
2024/01/11 02:01:06;;;;;;;7.78;5.70;;;-6.00;99.90;;;;;;5061892;28;20205;-78
2024/01/11 02:03:37;;;;;;;20.50;8.75;;;-6.00;99.90;;;;;;5063170;28;20201;-78
2024/01/11 02:06:05;;;;;;;7.85;6.53;;;-6.10;99.90;;;;;;5057640;28;20200;-78
2024/01/11 02:08:33;;;;;;;6.32;4.55;;;-6.10;99.90;;;;;;5055050;28;20225;-78
2024/01/11 02:11:01;;;;;;;10.20;5.97;;;-6.10;99.90;;;;;;5055490;28;20197;-78
2024/01/11 02:13:28;;;;;;;6.32;4.40;;;-6.10;99.90;;;;;;5063275;28;20196;-78
2024/01/11 02:15:55;;;;;;;9.48;5.13;;;-6.10;99.90;;;;;;5058455;28;20200;-78
2024/01/11 02:18:21;;;;;;;8.45;5.30;;;-6.10;99.90;;;;;;5062975;28;20201;-78
2024/01/11 02:20:49;;;;;;;6.20;5.60;;;-6.10;99.90;;;;;;5061845;28;20204;-78
2024/01/11 02:23:20;;;;;;;8.07;5.90;;;-6.10;99.90;;;;;;5058849;28;20396;-78
2024/01/11 02:25:48;;;;;;;5.38;4.53;;;-6.10;99.90;;;;;;5061929;28;20685;-78
2024/01/11 02:28:15;;;;;;;5.25;4.85;;;-6.10;99.90;;;;;;5053820;28;20243;-78
2024/01/11 02:30:42;;;;;;;13.75;4.95;;;-6.10;99.90;;;;;;5058296;28;20208;-78
2024/01/11 02:33:09;;;;;;;8.95;4.50;;;-6.10;99.90;;;;;;5058609;28;20231;-78
2024/01/11 02:35:38;;;;;;;12.25;8.23;;;-6.10;99.90;;;;;;5054014;28;20208;-78
2024/01/11 02:38:06;;;;;;;8.50;4.28;;;-6.10;99.90;;;;;;5069893;28;20212;-78
2024/01/11 02:40:33;;;;;;;10.18;5.82;;;-6.10;99.90;;;;;;5069734;28;20693;-78
2024/01/11 02:43:08;;;;;;;7.22;5.75;;;-6.20;99.90;;;;;;5058402;28;20231;-78
2024/01/11 02:45:35;;;;;;;9.02;5.63;;;-6.10;99.90;;;;;;5058905;28;20207;-78
2024/01/11 02:48:01;;;;;;;7.10;4.32;;;-6.10;99.90;;;;;;5069488;28;20229;-78
2024/01/11 02:50:28;;;;;;;9.05;5.80;;;-6.20;99.90;;;;;;5067666;28;20201;-78
2024/01/11 02:52:55;;;;;;;5.72;5.13;;;-6.20;99.90;;;;;;5070572;28;20239;-78
2024/01/11 02:55:21;;;;;;;8.98;6.15;;;-6.20;99.90;;;;;;5067433;28;20204;-78
2024/01/11 02:57:48;;;;;;;10.93;6.85;;;-6.20;99.90;;;;;;5060811;28;20207;-78
2024/01/11 03:00:16;;;;;;;8.23;6.40;;;-6.20;99.90;;;;;;5061885;28;20232;-78
2024/01/11 03:02:43;;;;;;;6.82;5.43;;;-6.30;99.90;;;;;;5064848;28;20232;-78
2024/01/11 03:05:10;;;;;;;10.52;6.10;;;-6.30;99.90;;;;;;5054796;28;20205;-78
2024/01/11 03:07:37;;;;;;;7.55;5.70;;;-6.30;99.90;;;;;;5065233;28;20220;-77
2024/01/11 03:10:04;;;;;;;3.85;3.50;;;-6.40;99.90;;;;;;5063621;28;20945;-77
2024/01/11 03:12:31;;;;;;;6.18;5.60;;;-6.40;99.90;;;;;;5061515;28;20235;-78
2024/01/11 03:14:57;;;;;;;13.70;6.72;;;-6.40;99.90;;;;;;5061273;28;20212;-77
2024/01/11 03:17:25;;;;;;;7.05;6.43;;;-6.40;99.90;;;;;;5066368;28;20208;-78
2024/01/11 03:19:52;;;;;;;7.90;7.10;;;-6.40;99.90;;;;;;5062928;28;20208;-78
2024/01/11 03:22:19;;;;;;;6.95;6.22;;;-6.40;99.90;;;;;;5065025;28;20227;-78
2024/01/11 03:24:45;;;;;;;5.97;5.57;;;-6.40;99.90;;;;;;5068328;28;20592;-78
2024/01/11 03:27:12;;;;;;;10.90;5.88;;;-6.40;99.90;;;;;;5058584;28;20213;-78
2024/01/11 03:29:39;;;;;;;11.15;9.18;;;-6.40;99.90;;;;;;5058371;28;20225;-79
2024/01/11 03:32:06;;;;;;;5.40;4.30;;;-6.40;99.90;;;;;;5065081;28;20224;-78
2024/01/11 03:34:34;;;;;;;17.10;5.63;;;-6.40;99.90;;;;;;5055853;28;20282;-78
2024/01/11 03:37:01;;;;;;;5.50;5.00;;;-6.40;99.90;;;;;;5066002;28;20215;-78
2024/01/11 03:39:27;;;;;;;6.38;4.38;;;-6.40;99.90;;;;;;5060507;28;20694;-78
2024/01/11 03:41:54;;;;;;;7.15;4.70;;;-6.40;99.90;;;;;;5064114;28;20232;-78
2024/01/11 03:44:21;;;;;;;9.98;5.43;;;-6.40;99.90;;;;;;5065547;28;20270;-78
2024/01/11 03:46:47;;;;;;;11.23;5.20;;;-6.40;99.90;;;;;;5060348;28;20214;-78
2024/01/11 03:49:14;;;;;;;7.65;3.92;;;-6.50;99.90;;;;;;5061600;28;20594;-78
2024/01/11 03:51:42;;;;;;;10.77;4.53;;;-6.40;99.90;;;;;;5070206;28;20229;-78
2024/01/11 03:54:09;;;;;;;6.85;5.35;;;-6.50;99.90;;;;;;5068546;28;20205;-78
2024/01/11 03:56:39;;;;;;;12.13;8.20;;;-6.50;99.90;;;;;;5065850;28;20208;-80
2024/01/11 03:59:06;;;;;;;3.78;3.42;;;-6.50;99.90;;;;;;5067016;28;20234;-82
2024/01/11 04:01:34;;;;;;;4.38;4.03;;;-6.50;99.90;;;;;;5067103;28;20245;-83
2024/01/11 04:04:01;;;;;;;6.90;6.32;;;-6.50;99.90;;;;;;5069663;28;20225;-82
2024/01/11 04:06:28;;;;;;;13.07;5.82;;;-6.40;99.90;;;;;;5069188;28;20688;-81
2024/01/11 04:08:56;;;;;;;6.72;3.67;;;-6.40;99.90;;;;;;5067851;28;20224;-80
2024/01/11 04:11:23;;;;;;;5.93;5.35;;;-6.40;99.90;;;;;;5069604;28;20293;-81
2024/01/11 04:13:50;;;;;;;5.18;3.88;;;-6.50;99.90;;;;;;5063497;28;20216;-81
2024/01/11 04:16:16;;;;;;;8.60;4.22;;;-6.50;99.90;;;;;;5066958;28;20212;-80
2024/01/11 04:18:43;;;;;;;4.07;3.47;;;-6.50;99.90;;;;;;5056029;28;20202;-81
2024/01/11 04:21:22;;;;;;;7.10;6.00;;;-6.60;99.90;;;;;;5055278;28;20206;-80
2024/01/11 04:23:48;;;;;;;5.40;4.35;;;-6.60;99.90;;;;;;5059843;28;20644;-81
2024/01/11 04:26:16;;;;;;;3.67;2.78;;;-6.60;99.90;;;;;;5058166;28;20212;-80
2024/01/11 04:28:44;;;;;;;6.93;5.57;;;-6.60;99.90;;;;;;5069537;28;20229;-80
2024/01/11 04:31:11;;;;;;;5.95;4.95;;;-6.60;99.90;;;;;;5078608;28;20708;-80
2024/01/11 04:33:41;;;;;;;8.13;5.30;;;-6.60;99.90;;;;;;5078683;28;20209;-80
2024/01/11 04:36:08;;;;;;;5.90;5.38;;;-6.60;99.90;;;;;;5071640;28;20204;-84
2024/01/11 04:38:34;;;;;;;11.35;5.63;;;-6.60;99.90;;;;;;5067610;28;20202;-85
2024/01/11 04:41:01;;;;;;;12.52;7.68;;;-6.60;99.90;;;;;;5060465;28;20565;-82
2024/01/11 04:43:29;;;;;;;10.68;6.38;;;-6.60;99.90;;;;;;5062827;28;20205;-83
2024/01/11 04:45:56;;;;;;;7.93;4.00;;;-6.70;99.90;;;;;;5063123;28;20208;-82
2024/01/11 04:48:23;;;;;;;10.50;5.00;;;-6.70;99.90;;;;;;5070048;28;20216;-84
2024/01/11 04:50:49;;;;;;;4.25;3.95;;;-6.70;99.90;;;;;;5062137;28;20661;-84
2024/01/11 04:53:16;;;;;;;6.28;4.35;;;-6.70;99.90;;;;;;5063236;28;20205;-83
2024/01/11 04:55:43;;;;;;;15.18;5.95;;;-6.70;99.90;;;;;;5067720;28;20210;-83
2024/01/11 04:58:09;;;;;;;4.80;2.90;;;-6.60;99.90;;;;;;5062419;28;20215;-84
2024/01/11 05:00:37;;;;;;;6.45;5.85;;;-6.60;99.90;;;;;;5063910;28;20205;-83
2024/01/11 05:03:04;;;;;;;7.15;4.72;;;-6.60;99.90;;;;;;5071576;28;20235;-83
2024/01/11 05:05:31;;;;;;;5.85;2.60;;;-6.60;99.90;;;;;;5072605;28;20291;-83
2024/01/11 05:07:58;;;;;;;14.07;5.88;;;-6.60;99.90;;;;;;5072076;28;20208;-84
2024/01/11 05:10:25;;;;;;;7.15;4.40;;;-6.60;99.90;;;;;;5069132;28;20201;-83
2024/01/11 05:12:52;;;;;;;10.98;6.72;;;-6.60;99.90;;;;;;5080751;28;20277;-84
2024/01/11 05:15:18;;;;;;;4.00;3.60;;;-6.60;99.90;;;;;;5069063;28;20215;-84
2024/01/11 05:17:46;;;;;;;5.30;4.90;;;-6.60;99.90;;;;;;5071886;28;20204;-84
2024/01/11 05:20:13;;;;;;;4.43;4.03;;;-6.60;99.90;;;;;;5064792;28;20207;-83
2024/01/11 05:22:40;;;;;;;4.53;4.13;;;-6.70;99.90;;;;;;5070913;28;20239;-84
2024/01/11 05:25:07;;;;;;;11.20;5.03;;;-6.70;99.90;;;;;;5070640;28;20917;-83
2024/01/11 05:27:34;;;;;;;12.75;3.75;;;-6.70;99.90;;;;;;5066745;28;20202;-84
2024/01/11 05:30:00;;;;;;;11.95;4.55;;;-6.70;99.90;;;;;;5074976;28;20216;-84
2024/01/11 05:32:27;;;;;;;7.47;5.70;;;-6.70;99.90;;;;;;5066841;28;20686;-84
2024/01/11 05:34:55;;;;;;;6.95;4.75;;;-6.80;99.90;;;;;;5072136;28;20579;-84
2024/01/11 05:37:22;;;;;;;5.03;4.63;;;-6.80;99.90;;;;;;5068982;28;20212;-83
2024/01/11 05:39:48;;;;;;;5.75;4.60;;;-6.80;99.90;;;;;;5064038;28;20209;-84
2024/01/11 05:42:15;;;;;;;8.07;5.10;;;-6.80;99.90;;;;;;5069354;28;20232;-83
2024/01/11 05:44:42;;;;;;;4.75;3.58;;;-6.80;99.90;;;;;;5068429;28;20213;-83
2024/01/11 05:47:09;;;;;;;7.70;4.43;;;-6.80;99.90;;;;;;5060618;28;20301;-82
2024/01/11 05:49:36;;;;;;;4.25;3.50;;;-6.80;99.90;;;;;;5070791;28;20213;-83
2024/01/11 05:52:05;;;;;;;6.05;4.55;;;-6.80;99.90;;;;;;5062180;28;20220;-82
2024/01/11 05:54:31;;;;;;;5.07;4.60;;;-6.80;99.90;;;;;;5069105;28;20228;-84
2024/01/11 05:56:59;;;;;;;5.53;3.58;;;-6.80;99.90;;;;;;5066122;28;20287;-85
2024/01/11 05:59:26;;;;;;;5.43;4.25;;;-6.80;99.90;;;;;;5055567;28;20198;-83
2024/01/11 06:01:52;;;;;;;8.55;4.32;;;-6.70;99.90;;;;;;5075508;28;20224;-84
2024/01/11 06:04:19;;;;;;;4.20;3.08;;;-6.70;99.90;;;;;;5067813;28;20207;-83
2024/01/11 06:06:46;;;;;;;5.47;3.97;;;-6.80;99.90;;;;;;5060989;28;20209;-80
2024/01/11 06:09:14;;;;;;;5.80;4.85;;;-6.80;99.90;;;;;;5056812;28;20228;-83
2024/01/11 06:11:40;;;;;;;4.13;3.00;;;-6.80;99.90;;;;;;5071181;28;20232;-83
2024/01/11 06:14:08;;;;;;;9.00;4.88;;;-6.80;99.90;;;;;;5070828;28;20584;-79
2024/01/11 06:16:34;;;;;;;4.43;4.13;;;-6.70;99.90;;;;;;5058286;28;20592;-78
2024/01/11 06:19:01;;;;;;;6.45;5.85;;;-6.70;99.90;;;;;;5067043;28;20200;-78
2024/01/11 06:21:28;;;;;;;11.77;6.35;;;-6.70;99.90;;;;;;5050905;28;20224;-79
2024/01/11 06:23:55;;;;;;;12.13;7.80;;;-6.70;99.90;;;;;;5055364;28;20208;-78
2024/01/11 06:26:23;;;;;;;16.35;4.75;;;-6.70;99.90;;;;;;5068603;28;20209;-78
2024/01/11 06:28:49;;;;;;;6.15;5.25;;;-6.70;99.90;;;;;;5065234;28;20270;-77
2024/01/11 06:31:17;;;;;;;9.23;6.88;;;-6.70;99.90;;;;;;5065858;28;20228;-78
2024/01/11 06:33:44;;;;;;;9.68;5.50;;;-6.60;99.90;;;;;;5065537;28;20581;-79
2024/01/11 06:36:11;;;;;;;10.48;5.40;;;-6.70;99.90;;;;;;5062125;28;20210;-78
2024/01/11 06:38:37;;;;;;;14.90;4.50;;;-6.70;99.90;;;;;;5062173;28;20576;-77
2024/01/11 06:41:04;;;;;;;6.03;5.43;;;-6.70;99.90;;;;;;5060496;28;20205;-78
2024/01/11 06:43:32;;;;;;;4.93;4.25;;;-6.80;99.90;;;;;;5059264;28;20211;-77
2024/01/11 06:46:04;;;;;;;9.00;6.40;;;-6.80;99.90;;;;;;5058897;28;20208;-78
2024/01/11 06:48:30;;;;;;;9.85;5.45;;;-6.80;99.90;;;;;;5056557;28;20284;-78
2024/01/11 06:50:57;;;;;;;3.45;3.25;;;-6.80;99.90;;;;;;5061973;28;20642;-77
2024/01/11 06:53:24;;;;;;;5.90;4.03;;;-6.70;99.90;;;;;;5049791;28;20201;-78
2024/01/11 06:55:52;;;;;;;5.28;4.93;;;-6.70;99.90;;;;;;5063121;28;20284;-78
2024/01/11 06:58:21;;;;;;;8.00;3.85;;;-6.70;99.90;;;;;;5050083;28;20205;-78
2024/01/11 07:00:49;;;;;;;6.45;4.07;;;-6.70;99.90;;;;;;5061483;28;20201;-78
2024/01/11 07:03:16;;;;;;;6.18;5.57;;;-6.80;99.90;;;;;;5050817;28;20273;-78
2024/01/11 07:05:43;;;;;;;5.80;4.35;;;-6.80;99.90;;;;;;5066155;28;20208;-78
2024/01/11 07:08:10;;;;;;;13.27;4.35;;;-6.80;99.90;;;;;;5067209;28;20665;-78
2024/01/11 07:10:37;;;;;;;10.68;6.53;;;-6.80;99.90;;;;;;5058391;28;20662;-78
2024/01/11 07:13:04;;;;;;;7.00;5.25;;;-6.80;99.90;;;;;;5061497;28;20228;-79
2024/01/11 07:15:31;;;;;;;7.43;4.75;;;-6.80;99.90;;;;;;5058752;28;20228;-78
2024/01/11 07:18:00;;;;;;;8.40;7.60;;;-6.70;99.90;;;;;;5059196;28;20208;-78
2024/01/11 07:20:26;;;;;;;11.80;6.00;;;-6.70;99.90;;;;;;5063648;28;20199;-78
2024/01/11 07:22:53;;;;;;;5.60;3.15;;;-6.70;99.90;;;;;;5054580;28;20243;-78
2024/01/11 07:25:20;;;;;;;7.00;4.85;;;-6.70;99.90;;;;;;5048922;28;20213;-78
2024/01/11 07:27:47;;;;;;;6.40;5.32;;;-6.70;99.90;;;;;;5067551;28;20205;-78
2024/01/11 07:30:14;;;;;;;4.95;4.53;;;-6.60;99.90;;;;;;5059168;28;20275;-78
2024/01/11 07:32:40;;;;;;;7.30;5.50;;;-6.20;99.90;;;;;;5063703;28;20735;-78
2024/01/11 07:35:10;;;;;;;11.48;5.63;;;-6.20;99.90;;;;;;5060600;28;20205;-78
2024/01/11 07:37:37;;;;;;;8.77;5.70;;;-6.20;99.90;;;;;;5053501;28;20617;-78
2024/01/11 07:40:05;;;;;;;6.05;5.25;;;-6.30;99.90;;;;;;5054045;28;20201;-76
2024/01/11 07:42:31;;;;;;;10.07;7.53;;;-6.40;99.90;;;;;;5053278;28;20224;-78
2024/01/11 07:44:58;;;;;;;6.45;5.90;;;-6.40;99.90;;;;;;5058451;28;20667;-76
2024/01/11 07:47:25;;;;;;;8.35;6.32;;;-6.40;99.90;;;;;;5060686;28;20921;-78
2024/01/11 07:49:51;;;;;;;11.07;6.93;;;-6.30;99.90;;;;;;5070818;28;20239;-78
2024/01/11 07:52:19;;;;;;;11.80;8.00;;;-6.30;99.90;;;;;;5051815;28;20232;-79
2024/01/11 07:54:46;;;;;;;7.18;6.30;;;-6.20;99.90;;;;;;5064088;28;20204;-78
2024/01/11 07:57:13;;;;;;;6.93;6.32;;;-6.20;99.90;;;;;;5058431;28;20693;-78
2024/01/11 07:59:40;;;;;;;14.68;6.75;;;-6.10;99.90;;;;;;5054972;28;20201;-78
2024/01/11 08:02:07;;;;;;;6.15;5.60;;;-6.00;99.90;;;;;;5072564;28;20231;-79
2024/01/11 08:04:34;;;;;;;8.15;6.45;;;-5.90;99.90;;;;;;5067929;28;20213;-81
2024/01/11 08:07:01;;;;;;;11.25;6.80;;;-5.70;99.90;;;;;;5060608;28;20583;-79
2024/01/11 08:09:30;;;;;;;8.02;6.97;;;-5.50;99.90;;;;;;5063343;28;20686;-80
2024/01/11 08:11:58;;;;;;;14.68;6.03;;;-5.20;99.90;;;;;;5064326;28;20694;-79
2024/01/11 08:14:25;;;;;;;8.95;4.72;;;-4.80;99.90;;;;;;5064703;28;20239;-79
2024/01/11 08:16:53;;;;;;;12.23;7.45;;;-4.40;99.90;;;;;;5075044;28;20212;-77
2024/01/11 08:19:20;;;;;;;12.65;11.10;;;-3.80;99.90;;;;;;5068978;28;20212;-78
2024/01/11 08:21:46;;;;;;;11.95;7.03;;;-3.20;99.90;;;;;;5072177;28;20243;-78
2024/01/11 08:24:12;;;;;;;11.27;6.05;;;-2.60;99.90;;;;;;5070926;28;20231;-79
2024/01/11 08:26:40;;;;;;;14.73;7.57;;;-2.10;99.90;;;;;;5071506;28;20200;-78
2024/01/11 08:29:09;;;;;;;16.40;9.77;;;-1.50;99.90;;;;;;5057306;28;20979;-80
2024/01/11 08:31:35;;;;;;;13.98;8.98;;;-1.00;99.90;;;;;;5063383;28;20233;-78
2024/01/11 08:34:02;;;;;;;16.35;8.25;;;-0.60;99.90;;;;;;5066418;28;20204;-78
2024/01/11 08:36:32;;;;;;;14.77;8.43;;;-0.20;99.90;;;;;;5062395;28;20259;-78
2024/01/11 08:38:59;;;;;;;18.75;10.43;;;0.30;99.90;;;;;;5065468;28;20295;-77
2024/01/11 08:41:26;;;;;;;22.83;11.40;;;0.70;99.90;;;;;;5067928;28;20243;-77
2024/01/11 08:43:54;;;;;;;22.65;11.30;;;1.20;99.90;;;;;;5065631;28;20243;-77
2024/01/11 08:46:25;;;;;;;17.15;9.20;;;1.60;99.90;;;;;;5064111;28;20204;-79
2024/01/11 08:48:52;;;;;;;19.80;10.02;;;1.80;99.90;;;;;;5068868;28;20617;-79
2024/01/11 08:51:19;;;;;;;21.02;10.80;;;2.10;99.90;;;;;;5063652;28;20251;-80
2024/01/11 08:53:46;;;;;;;21.33;9.75;;;2.30;99.90;;;;;;5059979;28;20213;-79
2024/01/11 08:56:12;;;;;;;15.90;9.27;;;2.60;99.90;;;;;;5054131;28;20216;-80
2024/01/11 08:58:40;;;;;;;22.02;11.20;;;2.90;99.90;;;;;;5073055;28;20463;-77
2024/01/11 09:01:09;;;;;;;19.73;11.45;;;3.10;99.90;;;;;;5064929;28;20205;-76
2024/01/11 09:03:35;;;;;;;17.35;10.60;;;3.10;99.90;;;;;;5069088;28;20272;-77
2024/01/11 09:06:03;;;;;;;20.02;12.25;;;3.10;99.90;;;;;;5070365;28;20259;-77
2024/01/11 09:08:29;;;;;;;15.32;10.90;;;3.00;99.90;;;;;;5061354;28;20206;-76
2024/01/11 09:10:58;;;;;;;16.88;10.25;;;2.80;99.90;;;;;;5064124;28;20687;-77
2024/01/11 09:13:25;;;;;;;18.42;12.00;;;2.80;99.90;;;;;;5069210;28;20241;-76
2024/01/11 09:15:52;;;;;;;19.10;10.88;;;2.70;99.90;;;;;;5071287;28;20214;-77
2024/01/11 09:18:20;;;;;;;19.63;11.65;;;2.60;99.90;;;;;;5070156;28;20210;-86
2024/01/11 09:20:48;;;;;;;18.17;9.75;;;2.40;99.90;;;;;;5060160;28;20200;-79
2024/01/11 09:23:15;;;;;;;23.33;13.00;;;2.30;99.90;;;;;;5067005;28;20450;-78
2024/01/11 09:25:42;;;;;;;17.13;10.73;;;2.40;99.90;;;;;;5068303;28;20645;-79
2024/01/11 09:28:09;;;;;;;16.00;9.20;;;3.10;99.90;;;;;;5053816;28;20212;-78
2024/01/11 09:30:35;;;;;;;22.42;11.93;;;4.50;99.90;;;;;;5069899;28;20319;-78
2024/01/11 09:33:02;;;;;;;17.25;11.20;;;5.80;99.90;;;;;;5066034;28;20229;-78
2024/01/11 09:35:30;;;;;;;17.08;12.25;;;6.20;99.80;;;;;;5061193;28;20204;-78
2024/01/11 09:37:57;;;;;;;20.38;14.40;;;6.90;99.40;;;;;;5072110;28;20205;-79
2024/01/11 09:40:24;;;;;;;21.80;11.82;;;8.50;97.60;;;;;;5055351;28;20205;-78
2024/01/11 09:42:50;;;;;;;21.33;14.32;;;10.10;95.80;;;;;;5056556;28;20592;-78
2024/01/11 09:45:18;;;;;;;32.30;14.20;;;11.10;94.40;;;;;;5064286;28;20206;-78
2024/01/11 09:47:46;;;;;;;20.73;13.32;;;11.70;93.00;;;;;;5060924;28;20217;-79
2024/01/11 09:50:17;;;;;;;19.38;12.75;;;12.70;91.20;;;;;;5067201;28;20217;-78
2024/01/11 09:52:48;;;;;;;20.35;14.07;;;13.60;90.30;;;;;;5068147;28;20676;-76
2024/01/11 09:55:16;;;;;;;24.02;13.05;;;14.00;87.80;;;;;;5054101;28;20236;-85
2024/01/11 09:57:45;;;;;;;18.10;12.75;;;13.80;87.90;;;;;;5073598;28;20201;-80
2024/01/11 10:00:14;;;;;;;18.48;12.82;;;13.50;86.10;;;;;;5072977;28;20200;-81
2024/01/11 10:02:41;;;;;;;19.55;13.07;;;13.80;86.60;;;;;;5066345;28;20229;-79
2024/01/11 10:05:08;;;;;;;22.33;12.73;;;14.20;85.60;;;;;;5069831;28;20202;-79
2024/01/11 10:07:35;;;;;;;22.83;14.30;;;14.20;84.70;;;;;;5053594;28;20205;-79
2024/01/11 10:10:04;;;;;;;22.73;14.80;;;14.20;84.50;;;;;;5052792;28;20329;-79
2024/01/11 10:12:31;;;;;;;18.30;14.02;;;13.90;83.60;;;;;;5070484;28;20226;-79
2024/01/11 10:15:06;;;;;;;18.00;12.43;;;14.00;83.80;;;;;;5068690;28;20219;-79
2024/01/11 10:17:32;;;;;;;20.95;15.15;;;14.70;82.50;;;;;;5053399;28;20290;-79
2024/01/11 10:20:03;;;;;;;20.85;15.27;;;14.60;80.40;;;;;;5064206;28;20286;-79
2024/01/11 10:22:29;;;;;;;20.80;13.55;;;14.90;80.90;;;;;;5069984;28;20304;-79
2024/01/11 10:25:12;;;;;;;21.27;15.30;;;15.30;80.20;;;;;;5058663;28;20210;-79
2024/01/11 10:27:39;;;;;;;17.63;12.90;;;16.20;78.30;;;;;;5050963;28;20211;-79
2024/01/11 10:30:08;;;;;;;21.43;13.93;;;16.30;80.20;;;;;;5050429;28;20487;-79
2024/01/11 10:32:35;;;;;;;23.73;15.07;;;16.70;78.20;;;;;;5060687;28;20566;-79
2024/01/11 10:35:04;;;;;;;21.03;15.60;;;17.70;76.30;;;;;;5057653;28;20821;-79
2024/01/11 10:37:32;;;;;;;24.87;14.87;;;17.40;76.40;;;;;;5059972;28;20911;-79
2024/01/11 10:40:03;;;;;;;20.33;14.40;;;16.90;77.10;;;;;;5051938;28;20460;-79
2024/01/11 10:42:34;;;;;;;19.10;14.83;;;17.40;76.20;;;;;;5052829;28;20483;-79
2024/01/11 10:45:05;;;;;;;18.93;13.60;;;17.40;76.70;;;;;;5058812;28;20466;-79
2024/01/11 10:47:32;;;;;;;21.03;14.10;;;17.30;75.60;;;;;;5053101;28;20466;-80
2024/01/11 10:50:02;;;;;;;22.63;13.90;;;17.50;75.40;;;;;;5059206;28;20521;-79
2024/01/11 10:52:36;;;;;;;23.07;14.50;;;18.00;74.00;;;;;;5052132;28;20533;-79
2024/01/11 10:55:03;;;;;;;20.10;14.37;;;18.10;74.70;;;;;;5052853;28;20466;-79
2024/01/11 10:57:34;;;;;;;21.67;13.83;;;17.50;74.00;;;;;;5060924;28;20451;-79
2024/01/11 11:00:04;;;;;;;19.77;14.97;;;17.50;73.60;;;;;;5052501;28;20936;-79
2024/01/11 11:02:35;;;;;;;19.83;14.50;;;17.20;72.90;;;;;;5053902;28;20475;-79
2024/01/11 11:05:04;;;;;;;22.80;15.90;;;17.20;74.10;;;;;;5059341;28;20459;-79
2024/01/11 11:07:31;;;;;;;24.73;15.30;;;18.40;73.60;;;;;;5050252;28;20464;-79
2024/01/11 11:09:59;;;;;;;18.50;14.27;;;18.30;71.90;;;;;;5053304;28;20999;-79
2024/01/11 11:12:26;;;;;;;21.20;15.13;;;17.90;72.40;;;;;;5055613;28;20479;-79
2024/01/11 11:14:55;;;;;;;20.50;13.73;;;17.80;72.60;;;;;;5056642;28;20459;-79
2024/01/11 11:17:22;;;;;;;20.80;15.00;;;17.90;73.30;;;;;;5057615;28;20463;-79
2024/01/11 11:19:49;;;;;;;24.87;17.17;;;18.30;72.00;;;;;;5064305;28;20466;-79
2024/01/11 11:22:16;;;;;;;23.73;16.67;;;18.20;72.10;;;;;;5056542;28;20860;-79
2024/01/11 11:24:44;;;;;;;19.27;14.87;;;18.10;71.30;;;;;;5065204;28;20467;-79
2024/01/11 11:27:14;;;;;;;25.30;14.60;;;18.20;71.10;;;;;;5064487;28;21085;-79
2024/01/11 11:29:42;;;;;;;21.10;14.97;;;17.60;71.60;;;;;;5059211;28;20456;-80
2024/01/11 11:32:11;;;;;;;20.77;13.97;;;17.70;71.20;;;;;;5067332;28;20535;-79
2024/01/11 11:34:42;;;;;;;19.87;14.17;;;17.70;70.90;;;;;;5067897;28;20466;-79
2024/01/11 11:37:11;;;;;;;19.67;13.97;;;17.20;71.40;;;;;;5067175;28;21017;-80
2024/01/11 11:39:38;;;;;;;24.60;16.30;;;16.30;71.50;;;;;;5071859;28;20459;-79
2024/01/11 11:42:06;;;;;;;22.67;14.10;;;16.30;72.30;;;;;;5066619;28;20487;-79
2024/01/11 11:44:34;;;;;;;19.42;13.98;;;15.40;72.60;;;;;;5057975;28;20454;-79
2024/01/11 11:47:24;;;;;;;26.05;15.30;;;14.80;74.30;;;;;;5058255;28;20667;-79
2024/01/11 11:50:09;;;;;;;20.40;15.13;;;13.90;74.80;;;;;;5057563;28;20220;-79
2024/01/11 11:52:38;;;;;;;20.17;12.98;;;13.20;75.90;;;;;;5066845;28;20252;-79
2024/01/11 11:55:07;;;;;;;23.15;14.10;;;12.70;76.30;;;;;;5055575;28;20772;-80
2024/01/11 11:57:34;;;;;;;22.23;13.50;;;11.10;78.10;;;;;;5054222;28;20205;-79
2024/01/11 12:00:05;;;;;;;23.45;14.35;;;10.50;79.80;;;;;;5057608;28;20277;-80
2024/01/11 12:02:35;;;;;;;23.60;14.18;;;10.20;80.60;;;;;;5066173;28;20666;-79
2024/01/11 12:05:03;;;;;;;23.85;12.93;;;9.90;82.10;;;;;;5056572;28;20631;-79
2024/01/11 12:07:31;;;;;;;23.10;13.10;;;9.90;82.70;;;;;;5063409;28;20208;-79
2024/01/11 12:09:59;;;;;;;17.48;13.25;;;9.90;83.20;;;;;;5066753;28;20205;-80
2024/01/11 12:12:26;;;;;;;19.88;13.43;;;10.20;82.20;;;;;;5054365;28;20221;-79
2024/01/11 12:14:55;;;;;;;21.42;14.20;;;10.20;81.70;;;;;;5073380;28;20262;-80
2024/01/11 12:17:21;;;;;;;27.48;14.32;;;10.10;82.20;;;;;;5058622;28;20235;-80
2024/01/11 12:19:52;;;;;;;27.73;14.68;;;9.70;83.00;;;;;;5063497;28;20591;-80
2024/01/11 12:22:19;;;;;;;25.70;15.00;;;9.50;84.30;;;;;;5057870;28;20234;-79
2024/01/11 12:24:47;;;;;;;21.75;13.73;;;9.00;85.30;;;;;;5064366;28;20210;-80
2024/01/11 12:27:13;;;;;;;18.90;12.80;;;8.60;86.00;;;;;;5065023;28;20198;-79
2024/01/11 12:29:40;;;;;;;19.20;12.68;;;8.50;85.80;;;;;;5054524;28;20225;-80
2024/01/11 12:32:10;;;;;;;22.25;15.15;;;8.50;86.50;;;;;;5054712;28;20230;-80
2024/01/11 12:34:37;;;;;;;22.80;13.98;;;8.40;86.40;;;;;;5063849;28;20259;-79
2024/01/11 12:37:06;;;;;;;19.90;11.98;;;8.10;87.50;;;;;;5055931;28;20509;-80
2024/01/11 12:39:33;;;;;;;23.70;13.60;;;7.90;87.70;;;;;;5054641;28;20292;-79
2024/01/11 12:42:00;;;;;;;17.88;12.00;;;7.50;88.50;;;;;;5055029;28;20218;-79